Latest Coastal Weather Observations for Point Perpendicular

IDN60701

Issued at 9:12 pm EDT Sunday 28 February 2021 (issued every 10 minutes, with the page automatically refreshed every 10 minutes)

About coastal observations | Map of coastal stations | Coastal observations for NSW | Marine services | Other Formats
Station Details ID: 068151 Name: POINT PERPENDICULAR AWS Lat: -35.09 Lon: 150.80 Height: 85.0 m
Data from the previous 72 hours. | See also: Recent months at Point Perpendicular
Date/Time
EDT
Wind Sea
Height
m
Swell Vis
km
Cloud Weather Temp
°C
Press
MSL
hPa
Rain since
9am
mm
Dir  Spd
kts
Gust
kts
Height
m
Period
s
Dir
28/09:00pm ESE 3 4 - - - - - - - 21.3 1012.2 0.0
28/08:30pm ESE 3 6 - - - - - - - 21.3 1011.9 0.0
28/08:00pm SE 3 5 - - - - - - - 21.3 1011.7 0.0
28/07:30pm ESE 3 4 - - - - - - - 21.4 1011.3 0.0
28/07:00pm E 3 6 - - - - - - - 21.6 1010.9 0.0
28/06:30pm ESE 5 7 - - - - - - - 21.9 1010.7 0.0
28/06:00pm ESE 5 8 - - - - - - - 22.2 1010.6 0.0
28/05:30pm ESE 6 10 - - - - - - - 22.7 1010.4 0.0
28/05:00pm ESE 8 11 - - - - - - - 23.0 1010.1 0.0
28/04:30pm ESE 8 11 - - - - - - - 23.2 1010.1 0.0
28/04:00pm ESE 9 13 - - - - - - - 23.1 1010.2 0.0
28/03:30pm ESE 9 13 - - - - - - - 23.3 1010.4 0.0
28/03:00pm ESE 8 11 - - - - - - - 23.6 1010.7 0.0
28/02:30pm ESE 7 10 - - - - - - - 23.1 1011.4 0.0
28/02:00pm SE 7 10 - - - - - - - 23.3 1011.6 0.0
28/01:30pm SSE 8 11 - - - - - - - 23.9 1011.9 0.0
28/01:00pm SSE 7 10 - - - - - - - 22.8 1012.1 0.0
28/12:30pm SSE 6 8 - - - - - - - 22.9 1012.5 0.0
28/12:00pm S 7 9 - - - - - - - 22.4 1012.9 0.0
28/11:30am S 6 10 - - - - - - - 22.0 1013.2 0.0
28/11:00am SSW 7 10 - - - - - - - 21.7 1013.2 0.0
28/10:30am SSW 8 11 - - - - - - - 21.4 1013.3 0.0
28/10:00am SW 6 11 - - - - - - - 21.1 1013.2 0.0
28/09:30am WSW 6 9 - - - - - - - 20.7 1013.2 0.0
28/09:00am WSW 5 9 - - - - - - - 20.2 1013.0 0.0
28/08:30am WSW 5 9 - - - - - - - 19.8 1012.9 0.0
28/08:00am WSW 5 7 - - - - - - - 19.4 1012.7 0.0
28/07:30am WSW 5 8 - - - - - - - 19.2 1012.4 0.0
28/07:00am WSW 5 9 - - - - - - - 19.3 1012.0 0.0
28/06:30am SW 5 8 - - - - - - - 19.3 1011.7 0.0
28/06:00am SW 5 8 - - - - - - - 19.6 1011.4 0.0
28/05:30am SW 7 11 - - - - - - - 19.6 1011.2 0.0
28/05:00am SW 6 9 - - - - - - - 19.6 1011.1 0.0
28/04:30am SW 6 9 - - - - - - - 19.6 1010.8 0.0
28/04:00am SW 3 7 - - - - - - - 19.9 1010.8 0.0
28/03:30am SW 6 10 - - - - - - - 19.9 1011.2 0.0
28/03:00am SW 7 11 - - - - - - - 20.2 1010.9 0.0
28/02:30am SW 7 13 - - - - - - - 20.3 1010.9 0.0
28/02:00am SW 7 11 - - - - - - - 20.3 1011.2 0.0
28/01:30am WSW 4 5 - - - - - - - 20.2 1011.5 0.0
28/01:00am W 1 2 - - - - - - - 20.3 1011.5 0.0
28/12:30am WNW 1 2 - - - - - - - 20.1 1011.4 0.0
28/12:00am NNW 1 2 - - - - - - - 20.4 1011.3 0.0
 
Date/Time
EDT
Wind Sea
Height
m
Swell Vis
km
Cloud Weather Temp
°C
Press
MSL
hPa
Rain since
9am
mm
Dir  Spd
kts
Gust
kts
Height
m
Period
s
Dir
27/11:30pm N 5 7 - - - - - - - 20.3 1011.6 0.0
27/11:00pm N 9 13 - - - - - - - 20.8 1011.5 0.0
27/10:30pm N 9 14 - - - - - - - 20.9 1011.3 0.0
27/10:00pm NNE 10 15 - - - - - - - 20.8 1011.3 0.0
27/09:30pm NNE 10 14 - - - - - - - 20.8 1011.1 0.0
27/09:00pm NNE 10 14 - - - - - - - 20.8 1011.1 0.0
27/08:30pm NNE 11 16 - - - - - - - 21.0 1011.1 0.0
27/08:00pm NNE 10 16 - - - - - - - 21.2 1010.8 0.0
27/07:30pm NNE 11 16 - - - - - - - 21.3 1010.5 0.0
27/07:00pm NNE 10 16 - - - - - - - 21.4 1010.3 0.0
27/06:30pm NNE 10 15 - - - - - - - 21.4 1010.4 0.0
27/06:00pm NNE 11 15 - - - - - - - 22.2 1010.4 0.0
27/05:30pm NE 11 15 - - - - - - - 22.0 1010.4 0.0
27/05:00pm NE 10 14 - - - - - - - 21.9 1010.6 0.0
27/04:30pm NE 10 14 - - - - - - - 22.6 1011.0 0.0
27/04:00pm NE 8 11 - - - - - - - 22.0 1011.3 0.0
27/03:30pm NE 7 11 - - - - - - - 21.9 1011.8 0.0
27/03:00pm NNE 8 12 - - - - - - - 23.0 1012.2 0.0
27/02:30pm NNE 6 11 - - - - - - - 22.3 1012.8 0.0
27/02:00pm NE 6 9 - - - - - - - 21.4 1013.1 0.0
27/01:30pm E 4 6 - - - - - - - 21.0 1013.4 0.0
27/01:00pm SSW 1 3 - - - - - - - 20.7 1013.6 0.0
27/12:30pm WNW 1 3 - - - - - - - 20.6 1014.2 0.0
27/12:00pm NNE 1 3 - - - - - - - 20.5 1014.4 0.0
27/11:30am SSE 3 5 - - - - - - - 20.8 1014.2 0.0
27/11:00am SSW 4 6 - - - - - - - 20.5 1014.3 0.0
27/10:30am WSW 2 5 - - - - - - - 20.1 1014.5 0.0
27/10:00am WSW 3 4 - - - - - - - 19.8 1014.4 0.0
27/09:30am WSW 2 4 - - - - - - - 19.4 1014.7 0.0
27/09:00am WSW 3 5 - - - - - - - 19.5 1014.6 0.0
27/08:30am SW 3 5 - - - - - - - 19.3 1014.2 0.0
27/08:00am WSW 2 3 - - - - - - - 18.9 1014.1 0.0
27/07:30am WSW 3 5 - - - - - - - 18.7 1014.0 0.0
27/07:00am W 2 3 - - - - - - - 19.1 1014.0 0.0
27/06:30am WSW 2 5 - - - - - - - 19.2 1013.3 0.0
27/06:00am W 1 3 - - - - - - - 18.7 1013.3 0.0
27/05:30am W 1 2 - - - - - - - 19.2 1013.4 0.0
27/05:00am ESE 2 2 - - - - - - - 19.2 1013.5 0.0
27/04:30am ESE 1 2 - - - - - - - 19.3 1013.8 0.0
27/04:00am CALM 0 2 - - - - - - - 19.4 1014.1 0.0
27/03:30am E 3 5 - - - - - - - 19.3 1013.8 0.0
27/03:00am E 2 2 - - - - - - - 19.3 1014.1 0.0
27/02:30am E 3 5 - - - - - - - 19.4 1014.1 0.0
27/02:00am SE 4 6 - - - - - - - 19.4 1014.3 0.0
27/01:30am SSE 5 8 - - - - - - - 19.3 1014.6 0.0
27/01:00am SSE 5 8 - - - - - - - 19.4 1015.2 0.0
27/12:30am SE 5 8 - - - - - - - 19.4 1015.1 0.0
27/12:00am S 4 7 - - - - - - - 19.4 1015.3 0.0
 
Date/Time
EDT
Wind Sea
Height
m
Swell Vis
km
Cloud Weather Temp
°C
Press
MSL
hPa
Rain since
9am
mm
Dir  Spd
kts
Gust
kts
Height
m
Period
s
Dir
26/11:30pm SSE 5 7 - - - - - - - 19.3 1015.1 0.0
26/11:00pm S 7 13 - - - - - - - 19.3 1015.0 0.0
26/10:30pm S 6 10 - - - - - - - 19.4 1015.2 0.0
26/10:00pm S 6 11 - - - - - - - 19.4 1015.0 0.0
26/09:30pm S 8 12 - - - - - - - 19.4 1014.3 0.0
26/09:00pm S 7 12 - - - - - - - 19.4 1014.3 0.0
26/08:30pm SSE 8 11 - - - - - - - 19.5 1013.8 0.0
26/08:00pm SSE 7 11 - - - - - - - 19.5 1013.2 0.0
26/07:30pm SSE 7 10 - - - - - - - 19.5 1012.7 0.0
26/07:00pm SSE 8 12 - - - - - - - 19.5 1012.1 0.0
26/06:30pm SSE 7 11 - - - - - - - 19.6 1011.9 0.0
26/06:00pm SSE 8 13 - - - - - - - 19.6 1011.5 0.0
26/05:30pm SSE 7 10 - - - - - - - 19.6 1011.5 0.0
26/05:00pm SSE 7 10 - - - - - - - 19.6 1011.1 0.0
26/04:30pm SSE 7 11 - - - - - - - 19.6 1010.9 0.0
26/04:00pm SSE 8 12 - - - - - - - 19.8 1010.4 0.0
26/03:30pm SSE 8 13 - - - - - - - 19.8 1010.6 0.0
26/03:00pm SSE 9 14 - - - - - - - 19.6 1010.6 0.0
26/02:30pm SSE 11 15 - - - - - - - 20.0 1010.5 0.0
26/02:00pm SSE 10 15 - - - - - - - 20.1 1010.5 0.0
26/01:30pm SSE 10 16 - - - - - - - 20.6 1010.3 0.0
26/01:00pm SSE 10 15 - - - - - - - 20.4 1010.4 0.0
26/12:30pm SSE 8 13 - - - - - - - 20.8 1010.6 0.0
26/12:00pm SSE 8 11 - - - - - - - 21.4 1010.8 0.0
26/11:30am SSE 8 11 - - - - - - - 21.9 1010.9 0.0
26/11:00am SSE 8 11 - - - - - - - 21.3 1010.8 0.0
26/10:30am SSE 7 10 - - - - - - - 20.7 1010.9 0.0
26/10:00am SSE 5 9 - - - - - - - 20.9 1010.8 0.0
26/09:30am S 5 8 - - - - - - - 20.4 1010.6 0.0
26/09:00am S 6 8 - - - - - - - 21.0 1010.2 1.2
26/08:30am S 5 8 - - - - - - - 20.3 1010.0 1.2
26/08:00am S 6 9 - - - - - - - 20.1 1009.8 1.2
26/07:30am S 9 13 - - - - - - - 20.0 1009.5 1.2
26/07:00am S 8 11 - - - - - - - 20.0 1009.1 1.2
26/06:30am S 6 9 - - - - - - - 20.1 1008.6 1.2
26/06:00am SSW 8 11 - - - - - - - 20.2 1008.2 1.2
26/05:30am SSW 8 12 - - - - - - - 20.2 1008.0 1.2
26/05:00am SSW 10 13 - - - - - - - 20.2 1007.7 1.2
26/04:30am SSW 8 14 - - - - - - - 20.2 1007.4 1.2
26/04:00am SSW 10 14 - - - - - - - 20.3 1007.3 1.2
26/03:30am SSW 9 13 - - - - - - - 20.3 1007.0 1.2
26/03:00am SSW 10 16 - - - - - - - 20.4 1006.8 1.2
26/02:30am SSW 9 13 - - - - - - - 20.6 1006.7 1.2
26/02:00am W 4 8 - - - - - - - 21.3 1007.0 1.2
26/01:30am NW 6 9 - - - - - - - 20.5 1006.6 1.2
26/01:00am NW 9 12 - - - - - - - 20.7 1006.7 1.2
26/12:30am NW 9 14 - - - - - - - 20.8 1007.1 1.2
26/12:00am NNW 8 9 - - - - - - - 20.9 1007.1 1.2
 
Date/Time
EDT
Wind Sea
Height
m
Swell Vis
km
Cloud Weather Temp
°C
Press
MSL
hPa
Rain since
9am
mm
Dir  Spd
kts
Gust
kts
Height
m
Period
s
Dir
25/11:30pm NNW 8 10 - - - - - - - 20.3 1007.2 1.2
25/11:00pm N 9 11 - - - - - - - 20.9 1007.3 1.2
25/10:30pm N 10 12 - - - - - - - 21.2 1007.2 1.2
25/10:00pm N 10 13 - - - - - - - 21.2 1007.4 1.2
25/09:30pm N 9 12 - - - - - - - 21.6 1007.1 1.2

Other formats

Comma delimited format used in spreadsheet applications
http://www.bom.gov.au/fwo/IDN60701/IDN60701.95940.axf

JavaScript Object Notation format (JSON) in row-major order
http://www.bom.gov.au/fwo/IDN60701/IDN60701.95940.json

Data quality

Most of these data are generated automatically and are frequently updated. Quality checks on data are not normally performed. It is possible for incorrect values to appear. Refer to information at About Latest Weather Observations and please check the disclaimer before using these data.